Time;durP1;ratioP1;P1;durP2;ratioP2;P2;SDS_P1;SDS_P2;PMS_P1;PMS_P2;Temp;Humidity;BMP_temperature;BMP_pressure;BME280_temperature;BME280_humidity;BME280_pressure;Samples;Min_cycle;Max_cycle;Signal;HPM_P1;HPM_P2
2021/11/23 00:01:20;;;;;;;8.50;4.13;;;;;;;-1.25;100.00;101818.72;5045160;28;20094;-83
2021/11/23 00:03:48;;;;;;;8.03;4.40;;;;;;;-1.24;100.00;101811.81;5051133;28;20041;-83
2021/11/23 00:06:15;;;;;;;7.73;5.03;;;;;;;-1.19;100.00;101806.00;5052999;28;20099;-83
2021/11/23 00:08:42;;;;;;;7.93;3.97;;;;;;;-1.22;100.00;101802.41;5050893;28;20041;-83
2021/11/23 00:11:09;;;;;;;7.37;4.50;;;;;;;-1.25;100.00;101795.38;5035827;28;20056;-83
2021/11/23 00:13:36;;;;;;;7.63;4.20;;;;;;;-1.23;100.00;101801.50;5035749;28;20053;-83
2021/11/23 00:16:02;;;;;;;7.30;4.23;;;;;;;-1.17;100.00;101794.03;5072501;28;20059;-83
2021/11/23 00:18:29;;;;;;;7.33;4.40;;;;;;;-1.10;100.00;101795.16;5033951;28;20098;-83
2021/11/23 00:20:56;;;;;;;9.23;4.40;;;;;;;-1.03;100.00;101786.84;5052059;28;20651;-84
2021/11/23 00:23:23;;;;;;;9.50;4.50;;;;;;;-1.05;100.00;101782.41;5034644;28;20413;-83
2021/11/23 00:25:49;;;;;;;8.07;4.43;;;;;;;-1.11;100.00;101785.59;5065846;28;20052;-83
2021/11/23 00:28:16;;;;;;;6.43;4.40;;;;;;;-1.15;100.00;101776.81;5070996;28;20102;-83
2021/11/23 00:30:45;;;;;;;8.40;4.73;;;;;;;-1.13;100.00;101779.47;5054676;28;20040;-83
2021/11/23 00:33:13;;;;;;;8.60;5.30;;;;;;;-1.04;100.00;101777.28;5061671;28;20130;-82
2021/11/23 00:35:40;;;;;;;8.37;4.77;;;;;;;-1.14;100.00;101776.00;5045752;28;20556;-83
2021/11/23 00:38:11;;;;;;;6.70;5.10;;;;;;;-1.11;100.00;101779.53;5022721;28;20131;-83
2021/11/23 00:40:38;;;;;;;10.60;5.60;;;;;;;-1.06;100.00;101783.22;5037787;28;20551;-83
2021/11/23 00:43:05;;;;;;;7.63;5.30;;;;;;;-1.05;100.00;101787.59;5054609;28;20049;-83
2021/11/23 00:45:33;;;;;;;9.33;4.97;;;;;;;-1.01;100.00;101784.31;5037337;28;20051;-83
2021/11/23 00:48:00;;;;;;;10.00;5.47;;;;;;;-1.04;100.00;101787.66;5054837;28;20049;-83
2021/11/23 00:50:28;;;;;;;9.83;6.17;;;;;;;-0.95;100.00;101784.59;5037006;28;20047;-83
2021/11/23 00:52:55;;;;;;;8.47;5.33;;;;;;;-0.98;100.00;101779.28;5051629;28;20109;-83
2021/11/23 00:55:21;;;;;;;9.63;5.77;;;;;;;-0.95;100.00;101775.09;5033870;28;20045;-83
2021/11/23 00:57:48;;;;;;;9.77;5.50;;;;;;;-0.96;100.00;101762.06;5052749;28;20489;-83
2021/11/23 01:00:15;;;;;;;9.00;5.93;;;;;;;-0.94;100.00;101760.41;5044867;28;20040;-83
2021/11/23 01:02:42;;;;;;;9.03;5.50;;;;;;;-0.94;100.00;101765.59;5051138;28;20509;-82
2021/11/23 01:05:09;;;;;;;10.57;6.03;;;;;;;-0.82;100.00;101760.97;5036712;28;20075;-82
2021/11/23 01:07:36;;;;;;;11.87;5.57;;;;;;;-0.82;100.00;101768.75;5059631;28;20056;-83
2021/11/23 01:10:05;;;;;;;17.40;7.83;;;;;;;-0.70;100.00;101761.47;5053077;28;20132;-83
2021/11/23 01:12:32;;;;;;;12.77;6.27;;;;;;;-0.65;100.00;101770.34;5054753;28;20040;-83
2021/11/23 01:14:59;;;;;;;12.30;5.93;;;;;;;-0.53;100.00;101767.38;5053190;28;20432;-83
2021/11/23 01:17:25;;;;;;;10.10;6.13;;;;;;;-0.50;100.00;101774.44;5054729;28;20037;-83
2021/11/23 01:19:52;;;;;;;10.43;6.77;;;;;;;-0.48;100.00;101773.66;5042581;28;20554;-83
2021/11/23 01:22:19;;;;;;;12.63;7.30;;;;;;;-0.36;100.00;101775.88;5058186;28;20044;-83
2021/11/23 01:24:46;;;;;;;10.17;6.30;;;;;;;-0.44;100.00;101775.56;5055571;28;20570;-83
2021/11/23 01:27:13;;;;;;;9.80;5.97;;;;;;;-0.47;100.00;101761.56;5054192;28;20496;-83
2021/11/23 01:29:39;;;;;;;14.17;6.77;;;;;;;-0.43;100.00;101764.34;5051401;28;20066;-83
2021/11/23 01:32:06;;;;;;;11.20;6.33;;;;;;;-0.45;100.00;101767.72;5035320;28;20098;-83
2021/11/23 01:34:34;;;;;;;11.53;6.40;;;;;;;-0.39;100.00;101761.06;5052413;28;20064;-83
2021/11/23 01:37:01;;;;;;;10.47;6.23;;;;;;;-0.37;100.00;101754.22;5088152;28;20043;-83
2021/11/23 01:39:29;;;;;;;12.53;5.97;;;;;;;-0.33;100.00;101752.66;5032908;28;20040;-83
2021/11/23 01:41:55;;;;;;;11.10;7.27;;;;;;;-0.26;100.00;101754.66;5069068;28;20044;-83
2021/11/23 01:44:22;;;;;;;11.77;6.33;;;;;;;-0.27;100.00;101752.88;5035323;28;20036;-84
2021/11/23 01:46:49;;;;;;;9.13;6.10;;;;;;;-0.22;100.00;101740.09;5036219;28;20059;-83
2021/11/23 01:49:15;;;;;;;10.13;6.33;;;;;;;-0.17;100.00;101744.66;5032440;28;20048;-83
2021/11/23 01:51:42;;;;;;;11.60;6.73;;;;;;;-0.08;100.00;101745.03;5053809;28;20036;-83
2021/11/23 01:54:09;;;;;;;11.60;6.87;;;;;;;-0.08;100.00;101741.56;5038895;28;20097;-84
2021/11/23 01:56:36;;;;;;;11.67;6.67;;;;;;;-0.07;100.00;101735.53;5053718;28;20652;-83
2021/11/23 01:59:03;;;;;;;11.37;6.13;;;;;;;0.06;100.00;101731.69;5053329;28;20082;-83
2021/11/23 02:01:30;;;;;;;12.33;6.93;;;;;;;0.03;100.00;101732.47;5061821;28;20066;-83
2021/11/23 02:03:57;;;;;;;10.73;6.37;;;;;;;0.10;100.00;101731.00;5042089;28;20051;-83
2021/11/23 02:06:24;;;;;;;10.23;6.40;;;;;;;0.11;100.00;101725.84;5049720;28;20465;-83
2021/11/23 02:08:50;;;;;;;11.33;6.77;;;;;;;0.11;100.00;101728.44;5049084;28;20080;-83
2021/11/23 02:11:17;;;;;;;11.00;6.50;;;;;;;0.11;100.00;101731.03;5038963;28;20493;-83
2021/11/23 02:13:44;;;;;;;8.50;6.07;;;;;;;0.14;100.00;101717.28;5051709;28;20063;-83
2021/11/23 02:16:11;;;;;;;12.63;6.20;;;;;;;0.14;100.00;101720.75;5033542;28;20048;-84
2021/11/23 02:18:38;;;;;;;11.17;6.10;;;;;;;0.14;100.00;101727.66;5015293;28;20048;-83
2021/11/23 02:21:05;;;;;;;11.77;6.53;;;;;;;0.20;100.00;101725.31;5035424;28;20048;-83
2021/11/23 02:23:32;;;;;;;13.43;6.60;;;;;;;0.20;100.00;101726.19;5063980;28;20051;-83
2021/11/23 02:25:58;;;;;;;10.57;6.27;;;;;;;0.37;100.00;101721.66;5053266;28;20099;-83
2021/11/23 02:28:25;;;;;;;9.80;5.67;;;;;;;0.36;100.00;101716.41;5034539;28;20053;-83
2021/11/23 02:30:55;;;;;;;11.40;6.83;;;;;;;0.38;100.00;101719.94;5059502;28;20521;-83
2021/11/23 02:33:24;;;;;;;13.57;8.20;;;;;;;0.43;100.00;101711.50;5041262;28;20036;-85
2021/11/23 02:35:56;;;;;;;12.60;6.67;;;;;;;0.51;100.00;101702.25;5022812;28;20041;-84
2021/11/23 02:38:24;;;;;;;9.60;6.00;;;;;;;0.53;100.00;101702.31;5018483;28;20049;-84
2021/11/23 02:40:51;;;;;;;14.37;7.67;;;;;;;0.62;100.00;101704.38;5036587;28;20037;-83
2021/11/23 02:43:18;;;;;;;9.83;6.40;;;;;;;0.62;100.00;101705.25;5026837;28;20048;-85
2021/11/23 02:45:45;;;;;;;10.20;6.57;;;;;;;0.66;100.00;101696.72;5052920;28;20052;-84
2021/11/23 02:48:13;;;;;;;10.77;6.70;;;;;;;0.73;100.00;101698.72;5052473;28;20051;-86
2021/11/23 02:50:43;;;;;;;13.77;7.60;;;;;;;0.81;100.00;101692.06;5036622;28;20449;-85
2021/11/23 02:53:10;;;;;;;10.37;6.83;;;;;;;0.79;100.00;101693.72;5020380;28;20036;-86
2021/11/23 02:55:37;;;;;;;12.30;8.57;;;;;;;0.82;100.00;101693.81;5060036;28;20040;-85
2021/11/23 02:58:06;;;;;;;12.13;7.30;;;;;;;0.96;100.00;101704.72;5043116;28;20391;-85
2021/11/23 03:00:34;;;;;;;15.13;8.30;;;;;;;0.96;100.00;101709.06;5034710;28;20045;-87
2021/11/23 03:03:01;;;;;;;13.47;7.70;;;;;;;1.02;100.00;101699.75;5061867;28;20071;-85
2021/11/23 03:05:28;;;;;;;11.43;6.87;;;;;;;1.04;100.00;101700.69;5054837;28;20040;-87
2021/11/23 03:07:56;;;;;;;10.43;6.27;;;;;;;1.14;100.00;101694.06;5052902;28;20551;-84
2021/11/23 03:10:26;;;;;;;12.13;6.73;;;;;;;0.98;100.00;101697.84;5068871;28;20482;-85
2021/11/23 03:12:55;;;;;;;12.70;7.20;;;;;;;1.03;100.00;101692.84;5053768;28;20052;-85
2021/11/23 03:15:24;;;;;;;13.67;7.10;;;;;;;1.13;100.00;101690.59;5035630;28;20390;-84
2021/11/23 03:17:52;;;;;;;12.57;7.40;;;;;;;1.13;100.00;101688.00;5075309;28;20040;-85
2021/11/23 03:20:21;;;;;;;14.53;7.07;;;;;;;1.20;100.00;101691.69;5046060;28;20037;-86
2021/11/23 03:22:48;;;;;;;14.07;7.00;;;;;;;1.16;100.00;101694.13;5021016;28;20048;-84
2021/11/23 03:25:16;;;;;;;12.53;6.97;;;;;;;1.18;100.00;101682.94;5051571;28;20406;-87
2021/11/23 03:27:43;;;;;;;10.00;6.97;;;;;;;1.18;100.00;101687.25;5035659;28;20083;-84
2021/11/23 03:30:13;;;;;;;17.13;7.30;;;;;;;1.30;100.00;101688.56;5019309;28;20375;-85
2021/11/23 03:32:40;;;;;;;12.97;7.87;;;;;;;1.34;100.00;101692.13;5053316;28;20044;-84
2021/11/23 03:35:08;;;;;;;10.97;7.00;;;;;;;1.34;100.00;101694.72;5019233;28;20047;-85
2021/11/23 03:37:35;;;;;;;12.10;7.90;;;;;;;1.45;100.00;101684.69;5020103;28;20047;-84
2021/11/23 03:40:06;;;;;;;15.20;7.97;;;;;;;1.54;100.00;101669.38;5033577;28;20040;-85
2021/11/23 03:42:32;;;;;;;12.57;7.80;;;;;;;1.45;100.00;101676.91;5060098;28;20043;-84
2021/11/23 03:44:59;;;;;;;14.83;7.50;;;;;;;1.53;100.00;101684.13;5050731;28;20044;-84
2021/11/23 03:47:29;;;;;;;14.90;8.00;;;;;;;1.52;100.00;101674.53;5073962;28;20481;-85
2021/11/23 03:49:57;;;;;;;13.20;8.13;;;;;;;1.48;100.00;101661.34;5039646;28;20052;-87
2021/11/23 03:52:24;;;;;;;12.77;7.80;;;;;;;1.56;100.00;101657.28;5055174;28;20522;-84
2021/11/23 03:54:52;;;;;;;12.93;7.87;;;;;;;1.55;100.00;101651.19;5054910;28;20063;-84
2021/11/23 03:57:18;;;;;;;16.97;8.80;;;;;;;1.55;100.00;101653.78;5051521;28;20044;-84
2021/11/23 03:59:48;;;;;;;18.33;8.60;;;;;;;1.58;100.00;101660.81;5047216;28;20040;-85
2021/11/23 04:02:20;;;;;;;16.57;9.33;;;;;;;1.67;100.00;101672.41;5034241;28;20049;-85
2021/11/23 04:04:47;;;;;;;14.73;8.50;;;;;;;1.68;100.00;101671.59;5034822;28;20135;-85
2021/11/23 04:07:14;;;;;;;17.87;9.70;;;;;;;1.71;100.00;101664.72;5053003;28;20045;-85
2021/11/23 04:09:41;;;;;;;13.20;8.37;;;;;;;1.74;100.00;101665.66;5058545;28;20037;-86
2021/11/23 04:12:09;;;;;;;16.63;8.93;;;;;;;1.73;100.00;101661.31;5053397;28;20052;-85
2021/11/23 04:14:37;;;;;;;16.73;9.87;;;;;;;1.88;100.00;101655.69;5060811;28;20044;-85
2021/11/23 04:17:05;;;;;;;17.53;9.90;;;;;;;1.92;100.00;101668.84;5050254;28;20041;-85
2021/11/23 04:19:32;;;;;;;18.83;9.80;;;;;;;1.90;100.00;101659.22;5080400;28;20054;-86
2021/11/23 04:21:59;;;;;;;19.50;9.57;;;;;;;1.92;100.00;101666.22;5038966;28;20486;-85
2021/11/23 04:24:26;;;;;;;14.27;8.93;;;;;;;1.89;100.00;101670.47;5054845;28;20052;-85
2021/11/23 04:26:53;;;;;;;15.13;9.73;;;;;;;1.86;100.00;101675.59;5056500;28;20049;-86
2021/11/23 04:29:20;;;;;;;18.20;10.83;;;;;;;1.90;100.00;101677.47;5022302;28;20045;-86
2021/11/23 04:31:47;;;;;;;15.90;10.20;;;;;;;1.90;100.00;101682.66;5023301;28;20056;-86
2021/11/23 04:34:14;;;;;;;22.23;10.43;;;;;;;2.00;100.00;101678.63;5041346;28;20401;-85
2021/11/23 04:36:41;;;;;;;24.07;11.10;;;;;;;2.02;100.00;101683.06;5047558;28;20501;-86
2021/11/23 04:39:10;;;;;;;17.63;10.33;;;;;;;2.08;100.00;101684.94;5035742;28;20040;-85
2021/11/23 04:41:38;;;;;;;20.90;10.20;;;;;;;2.05;100.00;101685.75;5029094;28;20113;-85
2021/11/23 04:44:05;;;;;;;19.87;9.83;;;;;;;2.02;100.00;101695.19;5033672;28;20045;-85
2021/11/23 04:46:32;;;;;;;19.63;10.90;;;;;;;2.05;100.00;101680.53;5054566;28;20386;-85
2021/11/23 04:48:59;;;;;;;22.53;12.27;;;;;;;2.11;100.00;101687.66;5049924;28;20101;-85
2021/11/23 04:51:26;;;;;;;21.30;11.57;;;;;;;2.06;100.00;101690.13;5054493;28;20059;-84
2021/11/23 04:53:53;;;;;;;20.93;11.80;;;;;;;2.09;100.00;101698.03;5050211;28;20123;-85
2021/11/23 04:56:19;;;;;;;20.33;10.70;;;;;;;2.08;100.00;101698.88;5050422;28;20077;-85
2021/11/23 04:58:46;;;;;;;19.10;11.43;;;;;;;2.09;100.00;101699.75;5039743;28;20040;-85
2021/11/23 05:01:13;;;;;;;22.30;12.47;;;;;;;2.13;100.00;101701.63;5048139;28;20040;-86
2021/11/23 05:03:40;;;;;;;19.47;11.20;;;;;;;2.11;100.00;101714.63;5045506;28;20097;-85
2021/11/23 05:06:06;;;;;;;22.70;11.53;;;;;;;2.13;100.00;101702.50;5058509;28;20047;-85
2021/11/23 05:08:33;;;;;;;22.33;11.83;;;;;;;2.10;100.00;101702.44;5049850;28;20050;-85
2021/11/23 05:11:00;;;;;;;25.03;12.47;;;;;;;2.17;100.00;101690.44;5030386;28;20047;-86
2021/11/23 05:13:27;;;;;;;21.23;11.73;;;;;;;2.21;100.00;101693.19;5033045;28;20722;-87
2021/11/23 05:15:53;;;;;;;22.10;11.63;;;;;;;2.22;100.00;101691.47;5022579;28;20135;-86
2021/11/23 05:18:20;;;;;;;23.10;12.67;;;;;;;2.22;100.00;101681.94;5020815;28;20044;-87
2021/11/23 05:20:47;;;;;;;22.23;11.47;;;;;;;2.18;100.00;101674.84;5030864;28;20040;-85
2021/11/23 05:23:13;;;;;;;21.80;11.47;;;;;;;2.20;100.00;101667.97;5040515;28;20044;-87
2021/11/23 05:25:40;;;;;;;19.30;11.73;;;;;;;2.19;100.00;101668.81;5061029;28;20043;-86
2021/11/23 05:28:07;;;;;;;21.77;12.10;;;;;;;2.25;100.00;101660.28;5128133;22;20099;-84
2021/11/23 05:30:33;;;;;;;22.50;12.10;;;;;;;2.34;100.00;101655.31;5016788;28;20683;-82
2021/11/23 05:33:00;;;;;;;22.10;12.23;;;;;;;2.39;100.00;101665.91;5034546;28;20047;-82
2021/11/23 05:35:27;;;;;;;20.70;12.07;;;;;;;2.36;100.00;101660.59;5040360;28;20048;-82
2021/11/23 05:37:53;;;;;;;26.70;11.60;;;;;;;2.35;100.00;101656.19;4987832;28;20077;-82
2021/11/23 05:40:21;;;;;;;22.10;12.93;;;;;;;2.35;100.00;101658.81;5040106;28;20059;-83
2021/11/23 05:42:48;;;;;;;21.00;11.20;;;;;;;2.35;100.00;101664.91;5036073;28;20041;-82
2021/11/23 05:45:15;;;;;;;24.30;12.63;;;;;;;2.42;100.00;101658.16;5003227;28;20041;-83
2021/11/23 05:47:42;;;;;;;21.37;11.67;;;;;;;2.44;100.00;101666.94;5011871;28;20486;-82
2021/11/23 05:50:09;;;;;;;23.73;12.60;;;;;;;2.45;100.00;101668.69;5003889;28;20041;-82
2021/11/23 05:52:36;;;;;;;22.30;11.37;;;;;;;2.45;100.00;101674.78;5027668;28;20048;-83
2021/11/23 05:55:03;;;;;;;20.97;12.10;;;;;;;2.45;100.00;101676.50;5014295;28;20057;-83
2021/11/23 05:57:30;;;;;;;26.47;14.03;;;;;;;2.57;100.00;101674.25;4998399;28;20049;-82
2021/11/23 05:59:56;;;;;;;25.63;14.17;;;;;;;2.51;100.00;101692.31;4993230;28;20048;-83
2021/11/23 06:02:23;;;;;;;26.83;12.73;;;;;;;2.50;100.00;101687.94;5021564;28;20409;-83
2021/11/23 06:04:50;;;;;;;31.63;16.50;;;;;;;2.59;100.00;101696.03;5036996;28;20048;-83
2021/11/23 06:07:16;;;;;;;26.27;13.47;;;;;;;2.53;100.00;101688.06;5034724;28;20056;-82
2021/11/23 06:09:43;;;;;;;25.57;12.93;;;;;;;2.54;100.00;101695.03;5019471;28;20122;-82
2021/11/23 06:12:10;;;;;;;23.67;13.20;;;;;;;2.56;100.00;101693.34;5038114;28;20045;-83
2021/11/23 06:14:38;;;;;;;22.50;11.93;;;;;;;2.56;100.00;101703.78;4999931;28;20049;-83
2021/11/23 06:17:07;;;;;;;24.83;12.67;;;;;;;2.60;100.00;101710.84;5017026;28;20070;-82
2021/11/23 06:19:34;;;;;;;25.00;13.47;;;;;;;2.62;100.00;101706.56;4999844;28;20052;-83
2021/11/23 06:22:00;;;;;;;21.90;12.07;;;;;;;2.62;100.00;101717.00;5034875;28;20416;-82
2021/11/23 06:24:27;;;;;;;21.60;11.57;;;;;;;2.70;100.00;101717.22;5013323;28;20048;-82
2021/11/23 06:26:54;;;;;;;22.73;12.53;;;;;;;2.72;100.00;101705.97;5004200;28;20055;-81
2021/11/23 06:29:21;;;;;;;21.23;12.23;;;;;;;2.76;100.00;101704.34;5015693;28;20057;-82
2021/11/23 06:31:48;;;;;;;20.53;11.73;;;;;;;2.73;100.00;101697.31;5001961;28;20409;-82
2021/11/23 06:34:14;;;;;;;23.73;12.67;;;;;;;2.85;100.00;101706.31;5021227;28;20044;-82
2021/11/23 06:36:41;;;;;;;26.10;13.07;;;;;;;2.81;100.00;101703.63;5023389;28;20041;-82
2021/11/23 06:39:08;;;;;;;22.53;12.13;;;;;;;2.80;100.00;101704.47;5029099;28;20053;-82
2021/11/23 06:41:35;;;;;;;23.93;12.07;;;;;;;2.80;100.00;101709.69;5000950;28;20537;-84
2021/11/23 06:44:03;;;;;;;27.63;12.57;;;;;;;2.87;100.00;101712.47;5020432;28;20481;-83
2021/11/23 06:46:31;;;;;;;22.17;12.10;;;;;;;2.83;100.00;101720.22;5017770;28;20053;-83
2021/11/23 06:48:58;;;;;;;24.63;11.90;;;;;;;2.85;100.00;101719.34;5021160;28;20512;-83
2021/11/23 06:51:26;;;;;;;24.67;12.53;;;;;;;2.95;100.00;101719.69;5053788;28;20505;-83
2021/11/23 06:53:55;;;;;;;23.17;12.73;;;;;;;2.93;100.00;101733.50;5013219;28;20049;-84
2021/11/23 06:56:23;;;;;;;23.07;12.67;;;;;;;2.97;100.00;101730.16;5047669;28;20059;-83
2021/11/23 06:58:50;;;;;;;23.63;13.60;;;;;;;2.98;100.00;101737.16;5002425;28;20040;-83
2021/11/23 07:01:17;;;;;;;26.10;13.17;;;;;;;2.98;100.00;101738.03;5010684;28;20040;-83
2021/11/23 07:03:44;;;;;;;25.27;13.67;;;;;;;3.08;100.00;101741.78;5018695;28;20102;-83
2021/11/23 07:06:11;;;;;;;25.77;12.97;;;;;;;3.05;100.00;101736.47;5011613;28;20044;-83
2021/11/23 07:08:38;;;;;;;24.07;12.07;;;;;;;3.06;100.00;101733.03;5015186;28;20056;-83
2021/11/23 07:11:07;;;;;;;21.77;11.60;;;;;;;3.05;100.00;101726.91;5023757;28;20131;-83
2021/11/23 07:13:35;;;;;;;20.13;11.00;;;;;;;3.14;100.00;101743.69;5016492;28;21359;-83
2021/11/23 07:16:02;;;;;;;24.03;12.10;;;;;;;3.16;100.00;101744.59;5050945;28;20498;-83
2021/11/23 07:18:29;;;;;;;19.90;11.27;;;;;;;3.12;100.00;101737.53;5038419;28;20132;-83
2021/11/23 07:20:56;;;;;;;23.43;12.67;;;;;;;3.17;100.00;101746.34;5017616;28;20539;-83
2021/11/23 07:23:40;;;;;;;23.45;12.00;;;;;;;3.21;100.00;101756.06;5003406;28;20037;-85
2021/11/23 07:26:07;;;;;;;24.97;11.63;;;;;;;3.20;100.00;101749.06;5025871;28;20055;-83
2021/11/23 07:28:34;;;;;;;20.37;11.90;;;;;;;3.31;100.00;101756.34;5016223;28;20051;-83
2021/11/23 07:31:00;;;;;;;21.97;11.00;;;;;;;3.30;100.00;101749.34;5018576;28;20041;-84
2021/11/23 07:33:27;;;;;;;21.70;11.20;;;;;;;3.30;100.00;101745.84;5016886;28;20047;-84
2021/11/23 07:35:54;;;;;;;24.63;12.60;;;;;;;3.44;100.00;101744.47;5035901;28;20052;-83
2021/11/23 07:38:20;;;;;;;22.83;12.50;;;;;;;3.40;100.00;101745.25;5016419;28;20513;-84
2021/11/23 07:40:47;;;;;;;20.93;11.63;;;;;;;3.44;100.00;101749.69;5036014;28;20029;-83
2021/11/23 07:43:14;;;;;;;22.93;11.77;;;;;;;3.46;100.00;101748.03;5019712;28;20049;-84
2021/11/23 07:45:40;;;;;;;20.33;10.63;;;;;;;3.44;100.00;101746.19;5018740;28;20485;-84
2021/11/23 07:48:08;;;;;;;25.50;12.10;;;;;;;3.48;100.00;101753.28;5019469;28;20135;-84
2021/11/23 07:50:35;;;;;;;25.07;13.93;;;;;;;3.60;100.00;101744.00;5003889;28;20079;-83
2021/11/23 07:53:02;;;;;;;26.03;13.07;;;;;;;3.68;100.00;101749.44;5039582;28;20044;-83
2021/11/23 08:53:58;;;;;;;27.13;14.37;;;;;;;4.36;100.00;101793.78;5071157;28;20409;-83
2021/11/23 08:56:29;;;;;;;31.00;14.63;;;;;;;4.38;100.00;101787.75;5019652;28;20040;-83
2021/11/23 08:58:57;;;;;;;29.53;15.73;;;;;;;4.46;100.00;101791.41;5034444;28;20052;-83
2021/11/23 09:01:26;;;;;;;31.47;15.70;;;;;;;4.45;100.00;101792.25;5021630;28;20041;-83
2021/11/23 09:03:54;;;;;;;32.37;14.73;;;;;;;4.54;100.00;101802.06;5041760;28;20334;-81
2021/11/23 09:06:25;;;;;;;31.40;15.07;;;;;;;4.67;100.00;101804.09;5027031;28;20460;-81
2021/11/23 09:09:04;;;;;;;26.53;13.10;;;;;;;4.69;100.00;101809.34;5008902;28;20513;-83
2021/11/23 09:11:31;;;;;;;30.87;14.43;;;;;;;4.70;100.00;101805.88;5044593;22;20382;-87
2021/11/23 09:13:57;;;;;;;29.00;14.93;;;;;;;4.72;100.00;101804.19;5047860;23;20048;-82
2021/11/23 09:16:24;;;;;;;27.73;14.67;;;;;;;4.81;100.00;101796.53;5049623;22;20045;-84
2021/11/23 09:19:30;;;;;;;30.13;14.37;;;;;;;4.94;100.00;101788.06;5048805;28;20037;-80
2021/11/23 09:27:59;;;;;;;27.50;12.83;;;;;;;5.07;100.00;101803.19;5060505;28;20039;-82
2021/11/23 09:44:10;;;;;;;22.47;12.90;;;;;;;5.32;100.00;101801.06;5039006;28;20105;-79
2021/11/23 09:46:38;;;;;;;27.03;12.87;;;;;;;5.36;100.00;101797.63;4993084;28;20045;-80
2021/11/23 09:49:07;;;;;;;27.77;12.63;;;;;;;5.39;100.00;101805.56;5045507;28;20045;-81
2021/11/23 09:51:35;;;;;;;26.77;13.87;;;;;;;5.44;100.00;101800.41;5063966;28;20041;-83
2021/11/23 09:54:06;;;;;;;26.83;12.87;;;;;;;5.48;100.00;101800.50;5039878;28;20046;-82
2021/11/23 09:56:34;;;;;;;33.17;13.27;;;;;;;5.47;100.00;101801.34;5005871;28;20046;-82
2021/11/23 09:59:02;;;;;;;26.47;13.03;;;;;;;5.51;100.00;101804.91;5039476;28;20041;-82
2021/11/23 10:01:32;;;;;;;29.87;13.53;;;;;;;5.60;100.00;101805.94;5025755;28;20045;-82
2021/11/23 10:04:05;;;;;;;25.77;14.00;;;;;;;5.60;100.00;101808.56;5011625;28;20041;-82
2021/11/23 10:06:32;;;;;;;22.48;12.13;;;;;;;5.55;100.00;101805.00;5023434;28;20041;-81
2021/11/23 10:09:00;;;;;;;25.27;12.70;;;;;;;5.57;100.00;101803.28;5023752;28;20076;-82
2021/11/23 10:11:32;;;;;;;26.80;12.90;;;;;;;5.71;100.00;101805.25;5040438;28;20049;-83
2021/11/23 10:14:03;;;;;;;26.47;13.67;;;;;;;5.71;100.00;101805.25;5045833;28;20060;-82
2021/11/23 10:16:44;;;;;;;28.17;12.67;;;;;;;5.77;100.00;101792.25;5038235;28;20044;-82
2021/11/23 10:19:13;;;;;;;21.73;12.13;;;;;;;5.79;100.00;101795.78;5065518;28;20056;-82
2021/11/23 10:21:53;;;;;;;23.80;12.00;;;;;;;5.81;100.00;101794.97;5065309;28;20067;-81
2021/11/23 10:24:22;;;;;;;22.17;11.57;;;;;;;5.80;100.00;101787.06;5054757;28;20041;-83
2021/11/23 10:26:49;;;;;;;30.23;14.10;;;;;;;5.93;100.00;101783.81;5047107;28;20100;-81
2021/11/23 10:29:16;;;;;;;24.00;12.90;;;;;;;5.95;100.00;101784.72;5052207;28;20033;-82
2021/11/23 10:31:45;;;;;;;26.97;12.30;;;;;;;5.97;100.00;101776.88;5036271;28;20057;-81
2021/11/23 10:34:18;;;;;;;19.50;10.97;;;;;;;5.96;100.00;101772.50;5068517;28;20105;-80
2021/11/23 10:36:47;;;;;;;27.13;13.33;;;;;;;5.97;100.00;101775.16;5072699;28;20041;-83
2021/11/23 10:39:20;;;;;;;23.53;12.27;;;;;;;6.03;100.00;101777.88;5038056;28;20060;-81
2021/11/23 10:41:53;;;;;;;23.53;12.60;;;;;;;6.01;100.00;101778.72;5021513;28;20029;-82
2021/11/23 10:44:28;;;;;;;26.97;11.73;;;;;;;6.01;100.00;101774.34;5051155;28;20033;-81
2021/11/23 10:46:56;;;;;;;24.37;10.50;;;;;;;5.99;100.00;101778.69;5063549;28;20461;-81
2021/11/23 10:49:28;;;;;;;24.33;11.23;;;;;;;6.06;100.00;101782.31;5030712;28;20101;-80
2021/11/23 10:51:54;;;;;;;21.70;10.87;;;;;;;6.09;100.00;101775.34;5034343;28;20060;-81
2021/11/23 10:54:21;;;;;;;21.63;10.00;;;;;;;6.08;100.00;101773.59;5049703;28;20053;-81
2021/11/23 10:56:54;;;;;;;21.57;10.10;;;;;;;6.12;100.00;101782.38;5055813;28;20276;-81
2021/11/23 10:59:20;;;;;;;22.60;11.97;;;;;;;6.13;100.00;101778.88;5068807;28;20071;-82
2021/11/23 11:01:47;;;;;;;22.43;10.77;;;;;;;6.08;100.00;101786.69;5018549;28;20088;-81
2021/11/23 11:04:14;;;;;;;20.67;11.07;;;;;;;6.10;100.00;101784.97;5034182;28;20051;-81
2021/11/23 11:06:41;;;;;;;19.87;11.20;;;;;;;6.15;100.00;101782.44;5054876;28;20049;-81
2021/11/23 11:09:08;;;;;;;17.40;10.03;;;;;;;6.21;100.00;101779.88;5051917;28;20041;-82
2021/11/23 11:11:36;;;;;;;19.83;10.20;;;;;;;6.14;100.00;101780.69;5052289;28;20095;-80
2021/11/23 11:14:05;;;;;;;19.27;9.83;;;;;;;6.14;100.00;101778.94;5023820;28;20050;-80
2021/11/23 11:16:35;;;;;;;19.90;9.97;;;;;;;6.14;100.00;101770.19;5052608;28;20064;-79
2021/11/23 11:19:04;;;;;;;16.03;8.93;;;;;;;6.14;100.00;101776.31;5057923;28;20046;-80
2021/11/23 11:21:31;;;;;;;19.40;10.17;;;;;;;6.14;100.00;101764.94;5045304;28;20045;-80
2021/11/23 11:24:26;;;;;;;14.93;8.53;;;;;;;6.22;100.00;101773.78;5022850;28;20077;-80
2021/11/23 11:27:00;;;;;;;;;;;;;;;6.19;100.00;101774.63;5064203;28;20037;-80
2021/11/23 11:29:28;;;;;;;15.77;8.07;;;;;;;6.21;100.00;101770.28;5057279;28;19921;-80
2021/11/23 11:31:57;;;;;;;13.47;8.93;;;;;;;6.21;100.00;101782.50;5092665;22;20502;-84
2021/11/23 11:34:30;;;;;;;17.70;8.03;;;;;;;6.28;100.00;101794.88;5016909;28;20075;-84
2021/11/23 11:36:59;;;;;;;14.90;9.13;;;;;;;6.25;100.00;101784.34;5020161;28;20041;-83
2021/11/23 11:39:41;;;;;;;14.73;9.03;;;;;;;6.26;100.00;101791.34;5034102;28;20052;-84
2021/11/23 11:42:11;;;;;;;21.37;12.17;;;;;;;6.30;100.00;101781.78;5072934;28;20037;-85
2021/11/23 11:44:41;;;;;;;33.90;29.33;;;;;;;6.33;100.00;101787.97;5004561;28;20095;-84
2021/11/23 11:47:16;;;;;;;;;;;;;;;6.28;100.00;101802.75;5024526;28;20041;-83
2021/11/23 11:49:48;;;;;;;44.73;40.80;;;;;;;6.30;100.00;101803.66;5004685;28;20344;-83
2021/11/23 11:52:16;;;;;;;14.40;9.00;;;;;;;6.29;100.00;101804.50;5018569;28;20073;-84
2021/11/23 11:54:45;;;;;;;16.03;9.10;;;;;;;6.25;100.00;101815.84;5037134;28;20049;-84
2021/11/23 11:57:29;;;;;;;14.27;9.97;;;;;;;6.21;100.00;101804.38;5013758;28;20050;-84
2021/11/23 12:00:21;;;;;;;29.73;26.63;;;;;;;6.22;100.00;101807.88;4984185;28;20522;-85
2021/11/23 12:02:49;;;;;;;16.17;9.87;;;;;;;6.24;100.00;101811.44;4997234;28;20092;-84
2021/11/23 12:05:17;;;;;;;19.47;15.40;;;;;;;6.34;100.00;101812.47;5012722;28;20046;-85
2021/11/23 12:07:45;;;;;;;18.20;14.17;;;;;;;6.40;100.00;101802.06;5001906;28;20079;-83
2021/11/23 12:10:19;;;;;;;16.33;9.00;;;;;;;6.38;100.00;101801.13;5032218;28;20045;-86
2021/11/23 12:12:51;;;;;;;17.20;10.18;;;;;;;6.34;100.00;101788.84;5037974;28;20098;-86
2021/11/23 12:15:45;;;;;;;16.00;9.13;;;;;;;6.41;100.00;101781.09;5001553;28;20596;-84
2021/11/23 12:18:22;;;;;;;15.48;8.05;;;;;;;6.45;100.00;101787.25;5035847;28;20041;-85
2021/11/23 12:21:03;;;;;;;14.70;8.50;;;;;;;6.42;100.00;101784.59;5019464;28;20060;-83
2021/11/23 12:23:36;;;;;;;16.17;8.80;;;;;;;6.44;100.00;101777.63;5034639;28;20269;-83
2021/11/23 12:26:06;;;;;;;16.87;9.47;;;;;;;6.41;100.00;101786.34;5019225;28;20490;-83
2021/11/23 12:28:32;;;;;;;19.53;11.00;;;;;;;6.46;100.00;101775.88;5033755;28;20053;-86
2021/11/23 12:31:11;;;;;;;18.53;10.90;;;;;;;6.45;100.00;101776.75;5025390;28;20053;-83
2021/11/23 12:33:49;;;;;;;17.03;10.83;;;;;;;6.43;100.00;101773.22;5018030;28;20099;-84
2021/11/23 12:36:19;;;;;;;20.77;10.33;;;;;;;6.54;100.00;101776.88;5003284;28;20045;-84